createdAt,value
2019-05-25T00:00:11.479Z,96377.43
2019-05-25T00:01:19.651Z,96377.59
2019-05-25T00:02:26.891Z,96372.65
2019-05-25T00:03:34.895Z,96373.66
2019-05-25T00:04:42.105Z,96374.29
2019-05-25T00:05:50.126Z,96367.08
2019-05-25T00:06:57.355Z,96366.25
2019-05-25T00:08:05.376Z,96369.50
2019-05-25T00:09:12.573Z,96370.96
2019-05-25T00:10:22.198Z,96368.98
2019-05-25T00:11:29.543Z,96371.45
2019-05-25T00:12:37.549Z,96369.12
2019-05-25T00:13:44.759Z,96365.34
2019-05-25T00:14:52.766Z,96365.84
2019-05-25T00:15:59.974Z,96365.16
2019-05-25T00:17:07.955Z,96360.53
2019-05-25T00:18:15.175Z,96365.43
2019-05-25T00:19:23.180Z,96362.47
2019-05-25T00:20:30.390Z,96359.70
2019-05-25T00:21:38.394Z,96366.39
2019-05-25T00:22:45.592Z,96365.72
2019-05-25T00:23:53.595Z,96359.33
2019-05-25T00:25:00.896Z,96367.33
2019-05-25T00:26:10.072Z,96360.11
2019-05-25T00:27:17.301Z,96363.36
2019-05-25T00:28:25.288Z,96361.41
2019-05-25T00:29:32.514Z,96363.69
2019-05-25T00:30:40.776Z,96356.95
2019-05-25T00:31:48.076Z,96354.48
2019-05-25T00:32:56.247Z,96361.66
2019-05-25T00:34:03.533Z,96364.91
2019-05-25T00:35:11.661Z,96367.67
2019-05-25T00:36:18.961Z,96363.59
2019-05-25T00:37:26.980Z,96366.84
2019-05-25T00:38:34.377Z,96364.03
2019-05-25T00:39:42.366Z,96366.80
2019-05-25T00:40:49.587Z,96366.45
2019-05-25T00:41:57.582Z,96369.70
2019-05-25T00:43:04.789Z,96368.05
2019-05-25T00:44:12.780Z,96367.41
2019-05-25T00:45:20.006Z,96371.81
2019-05-25T00:46:28.012Z,96361.98
2019-05-25T00:47:35.237Z,96367.70
2019-05-25T00:48:43.243Z,96363.92
2019-05-25T00:49:50.468Z,96360.16
2019-05-25T00:50:58.476Z,96363.25
2019-05-25T00:52:05.714Z,96363.40
2019-05-25T00:53:13.737Z,96362.23
2019-05-25T00:54:27.994Z,96362.41
2019-05-25T00:55:30.662Z,96359.60
2019-05-25T00:56:38.954Z,96362.03
2019-05-25T00:57:46.980Z,96360.87
2019-05-25T00:58:54.217Z,96359.36
2019-05-25T01:00:02.220Z,96360.81
2019-05-25T01:01:11.043Z,96359.66
2019-05-25T01:02:19.027Z,96358.52
2019-05-25T01:03:26.223Z,96357.02
2019-05-25T01:04:34.232Z,96357.17
2019-05-25T01:05:41.468Z,96364.67
2019-05-25T01:06:49.955Z,96362.20
2019-05-25T01:07:57.257Z,96364.14
2019-05-25T01:09:06.652Z,96360.36
2019-05-25T01:10:14.347Z,96362.63
2019-05-25T01:11:22.368Z,96362.81
2019-05-25T01:12:29.564Z,96361.30
2019-05-25T01:13:37.617Z,96364.86
2019-05-25T01:14:44.813Z,96368.44
2019-05-25T01:15:53.881Z,96365.97
2019-05-25T01:17:01.107Z,96371.34
2019-05-25T01:18:09.202Z,96359.72
2019-05-25T01:19:16.431Z,96364.61
2019-05-25T01:20:25.292Z,96367.70
2019-05-25T01:21:33.281Z,96365.58
2019-05-25T01:22:41.332Z,96366.09
2019-05-25T01:23:48.557Z,96369.19
2019-05-25T01:24:56.548Z,96368.02
2019-05-25T01:26:03.747Z,96370.63
2019-05-25T01:27:11.737Z,96367.68
2019-05-25T01:28:18.974Z,96368.64
2019-05-25T01:29:26.965Z,96367.48
2019-05-25T01:30:34.190Z,96365.84
2019-05-25T01:31:42.170Z,96370.38
2019-05-25T01:32:49.391Z,96369.08
2019-05-25T01:33:57.400Z,96367.09
2019-05-25T01:35:04.734Z,96369.84
2019-05-25T01:36:12.720Z,96372.63
2019-05-25T01:37:19.935Z,96368.71
2019-05-25T01:38:28.914Z,96363.63
2019-05-25T01:39:37.309Z,96363.77
2019-05-25T01:40:45.297Z,96363.09
2019-05-25T01:41:52.523Z,96360.14
2019-05-25T01:43:00.516Z,96364.20
2019-05-25T01:44:07.725Z,96362.06
2019-05-25T01:45:15.745Z,96363.03
2019-05-25T01:46:22.973Z,96359.59
2019-05-25T01:47:30.992Z,96362.69
2019-05-25T01:48:38.234Z,96357.95
2019-05-25T01:49:46.243Z,96359.91
2019-05-25T01:50:53.510Z,96359.23
2019-05-25T01:52:01.530Z,96358.75
2019-05-25T01:53:11.519Z,96358.41
2019-05-25T01:54:18.727Z,96354.01
2019-05-25T01:55:25.938Z,96354.30
2019-05-25T01:56:33.947Z,96354.30
2019-05-25T01:57:41.168Z,96360.68
2019-05-25T01:58:50.258Z,96358.20
2019-05-25T01:59:57.482Z,96357.39
2019-05-25T02:01:05.503Z,96357.19
2019-05-25T02:02:12.802Z,96357.33
2019-05-25T02:03:20.825Z,96358.78
2019-05-25T02:04:28.033Z,96357.64
2019-05-25T02:05:36.055Z,96359.57
2019-05-25T02:06:43.265Z,96352.70
2019-05-25T02:07:51.286Z,96356.28
2019-05-25T02:08:58.497Z,96351.05
2019-05-25T02:10:07.392Z,96353.66
2019-05-25T02:11:14.583Z,96357.73
2019-05-25T02:12:22.606Z,96357.38
2019-05-25T02:13:29.860Z,96359.17
2019-05-25T02:14:37.851Z,96354.43
2019-05-25T02:15:45.061Z,96358.83
2019-05-25T02:16:53.055Z,96358.83
2019-05-25T02:18:00.269Z,96356.70
2019-05-25T02:19:08.301Z,96356.22
2019-05-25T02:20:16.026Z,96362.74
2019-05-25T02:21:24.011Z,96360.62
2019-05-25T02:22:31.221Z,96361.92
2019-05-25T02:23:40.969Z,96358.48
2019-05-25T02:24:48.134Z,96363.70
2019-05-25T02:25:56.169Z,96363.37
2019-05-25T02:27:03.386Z,96358.63
2019-05-25T02:28:11.371Z,96364.84
2019-05-25T02:29:18.581Z,96361.72
2019-05-25T02:30:29.670Z,96364.33
2019-05-25T02:31:36.919Z,96363.84
2019-05-25T02:32:44.940Z,96368.76
2019-05-25T02:33:52.165Z,96363.54
2019-05-25T02:35:00.171Z,96362.23
2019-05-25T02:36:07.403Z,96358.80
2019-05-25T02:37:15.418Z,96361.41
2019-05-25T02:38:22.631Z,96362.23
2019-05-25T02:39:30.622Z,96355.37
2019-05-25T02:40:37.857Z,96354.06
2019-05-25T02:41:45.836Z,96356.19
2019-05-25T02:42:53.067Z,96356.67
2019-05-25T02:44:01.084Z,96358.45
2019-05-25T02:45:09.976Z,96356.33
2019-05-25T02:46:18.006Z,96351.25
2019-05-25T02:47:25.218Z,96347.81
2019-05-25T02:48:33.242Z,96351.73
2019-05-25T02:49:40.464Z,96350.08
2019-05-25T02:50:48.474Z,96354.48
2019-05-25T02:51:55.666Z,96352.21
2019-05-25T02:53:03.673Z,96349.40
2019-05-25T02:54:10.896Z,96353.80
2019-05-25T02:55:32.997Z,96352.49
2019-05-25T02:56:28.111Z,96350.02
2019-05-25T02:57:36.118Z,96350.98
2019-05-25T02:58:43.342Z,96351.95
2019-05-25T02:59:51.354Z,96348.52
2019-05-25T03:00:59.265Z,96349.82
2019-05-25T03:02:07.768Z,96356.34
2019-05-25T03:03:14.993Z,96344.29
2019-05-25T03:04:22.970Z,96357.34
2019-05-25T03:05:30.208Z,96356.03
2019-05-25T03:06:39.400Z,96345.25
2019-05-25T03:07:47.372Z,96350.47
2019-05-25T03:08:58.279Z,96347.04
2019-05-25T03:10:06.294Z,96349.16
2019-05-25T03:11:14.510Z,96344.70
2019-05-25T03:12:22.649Z,96346.84
2019-05-25T03:13:34.436Z,96344.36
2019-05-25T03:14:41.650Z,96342.58
2019-05-25T03:15:49.669Z,96347.11
2019-05-25T03:16:56.878Z,96347.45
2019-05-25T03:18:06.075Z,96347.11
2019-05-25T03:19:13.313Z,96343.20
2019-05-25T03:20:21.615Z,96347.11
2019-05-25T03:21:28.931Z,96340.25
2019-05-25T03:22:36.927Z,96343.69
2019-05-25T03:23:45.217Z,96343.55
2019-05-25T03:24:53.235Z,96346.77
2019-05-25T03:26:00.473Z,96348.56
2019-05-25T03:27:09.544Z,96349.38
2019-05-25T03:28:16.772Z,96341.55
2019-05-25T03:29:25.660Z,96346.44
2019-05-25T03:30:35.510Z,96346.44
2019-05-25T03:31:43.532Z,96346.09
2019-05-25T03:32:50.893Z,96348.70
2019-05-25T03:33:58.899Z,96346.57
2019-05-25T03:35:06.697Z,96339.22
2019-05-25T03:36:14.700Z,96349.83
2019-05-25T03:37:21.956Z,96354.88
2019-05-25T03:38:29.963Z,96345.41
2019-05-25T03:39:37.155Z,96350.14
2019-05-25T03:40:45.176Z,96348.53
2019-05-25T03:41:52.373Z,96355.84
2019-05-25T03:43:00.378Z,96356.36
2019-05-25T03:44:07.603Z,96358.14
2019-05-25T03:45:15.759Z,96358.97
2019-05-25T03:46:22.969Z,96358.14
2019-05-25T03:47:30.960Z,96356.02
2019-05-25T03:48:38.187Z,96351.27
2019-05-25T03:49:47.301Z,96354.34
2019-05-25T03:50:54.513Z,96351.38
2019-05-25T03:52:02.521Z,96356.26
2019-05-25T03:53:09.733Z,96356.26
2019-05-25T03:54:17.738Z,96358.19
2019-05-25T03:55:24.969Z,96361.14
2019-05-25T03:56:32.986Z,96363.88
2019-05-25T03:57:40.196Z,96357.84
2019-05-25T03:58:48.169Z,96358.66
2019-05-25T03:59:55.377Z,96357.36
2019-05-25T04:01:03.404Z,96358.32
2019-05-25T04:02:10.618Z,96357.02
2019-05-25T04:03:18.648Z,96354.41
2019-05-25T04:04:25.876Z,96360.93
2019-05-25T04:05:33.920Z,96359.28
2019-05-25T04:06:41.144Z,96357.50
2019-05-25T04:07:49.136Z,96360.11
2019-05-25T04:08:56.360Z,96361.07
2019-05-25T04:10:04.388Z,96366.77
2019-05-25T04:11:11.577Z,96357.30
2019-05-25T04:12:19.597Z,96359.91
2019-05-25T04:13:26.823Z,96360.87
2019-05-25T04:14:34.859Z,96358.59
2019-05-25T04:15:42.089Z,96362.99
2019-05-25T04:16:50.097Z,96365.95
2019-05-25T04:17:57.721Z,96367.73
2019-05-25T04:19:05.735Z,96373.29
2019-05-25T04:20:14.242Z,96370.20
2019-05-25T04:21:22.263Z,96372.47
2019-05-25T04:22:30.642Z,96365.13
2019-05-25T04:23:39.718Z,96366.42
2019-05-25T04:24:46.954Z,96370.82
2019-05-25T04:25:56.055Z,96365.60
2019-05-25T04:27:03.597Z,96368.69
2019-05-25T04:28:11.616Z,96371.78
2019-05-25T04:29:18.847Z,96370.48
2019-05-25T04:30:27.224Z,96373.43
2019-05-25T04:31:35.439Z,96371.30
2019-05-25T04:32:43.440Z,96377.34
2019-05-25T04:33:50.646Z,96380.30
2019-05-25T04:34:58.637Z,96381.13
2019-05-25T04:36:05.837Z,96379.81
2019-05-25T04:37:13.868Z,96376.24
2019-05-25T04:38:21.125Z,96375.28
2019-05-25T04:39:29.122Z,96373.98
2019-05-25T04:40:36.403Z,96373.84
2019-05-25T04:41:44.397Z,96377.62
2019-05-25T04:42:51.620Z,96378.23
2019-05-25T04:43:59.631Z,96380.70
2019-05-25T04:45:08.051Z,96382.02
2019-05-25T04:46:16.060Z,96377.27
2019-05-25T04:47:26.887Z,96381.53
2019-05-25T04:48:32.988Z,96379.41
2019-05-25T04:49:40.211Z,96381.88
2019-05-25T04:50:48.231Z,96378.44
2019-05-25T04:51:55.443Z,96383.17
2019-05-25T04:53:03.419Z,96383.04
2019-05-25T04:54:10.647Z,96381.63
2019-05-25T04:55:19.268Z,96385.38
2019-05-25T04:56:38.706Z,96385.23
2019-05-25T04:57:36.192Z,96382.63
2019-05-25T04:58:43.438Z,96377.75
2019-05-25T04:59:51.771Z,96383.31
2019-05-25T05:00:58.985Z,96382.83
2019-05-25T05:02:08.158Z,96387.91
2019-05-25T05:03:15.367Z,96383.03
2019-05-25T05:04:23.358Z,96385.98
2019-05-25T05:05:30.555Z,96388.94
2019-05-25T05:06:39.633Z,96395.67
2019-05-25T05:07:46.851Z,96391.75
2019-05-25T05:08:54.859Z,96391.92
2019-05-25T05:10:03.379Z,96393.58
2019-05-25T05:11:11.569Z,96392.95
2019-05-25T05:12:18.772Z,96397.35
2019-05-25T05:13:26.760Z,96398.17
2019-05-25T05:14:33.972Z,96392.47
2019-05-25T05:15:41.983Z,96392.61
2019-05-25T05:16:49.204Z,96394.40
2019-05-25T05:17:57.200Z,96390.63
2019-05-25T05:19:04.933Z,96387.19
2019-05-25T05:20:14.227Z,96384.75
2019-05-25T05:21:21.484Z,96389.14
2019-05-25T05:22:29.475Z,96387.50
2019-05-25T05:23:36.718Z,96387.16
2019-05-25T05:24:45.787Z,96390.11
2019-05-25T05:25:54.094Z,96391.41
2019-05-25T05:27:02.109Z,96389.14
2019-05-25T05:28:09.295Z,96385.54
2019-05-25T05:29:17.288Z,96391.58
2019-05-25T05:30:34.345Z,96396.33
2019-05-25T05:31:42.361Z,96392.89
2019-05-25T05:32:49.600Z,96394.02
2019-05-25T05:33:57.598Z,96388.80
2019-05-25T05:35:05.972Z,96389.14
2019-05-25T05:36:15.360Z,96389.97
2019-05-25T05:37:24.973Z,96391.10
2019-05-25T05:38:34.336Z,96391.92
2019-05-25T05:39:43.325Z,96395.50
2019-05-25T05:40:52.123Z,96396.33
2019-05-25T05:42:02.621Z,96389.31
2019-05-25T05:43:13.014Z,96394.73
2019-05-25T05:44:23.089Z,96394.60
2019-05-25T05:45:34.754Z,96393.98
2019-05-25T05:46:44.336Z,96397.14
2019-05-25T05:47:55.777Z,96396.48
2019-05-25T05:49:03.938Z,96397.03
2019-05-25T05:50:12.809Z,96397.58
2019-05-25T05:51:22.498Z,96395.50
2019-05-25T05:52:34.943Z,96400.76
2019-05-25T05:53:45.019Z,96394.91
2019-05-25T05:54:55.147Z,96400.34
2019-05-25T05:56:02.419Z,96394.97
2019-05-25T05:57:12.657Z,96395.80
2019-05-25T05:58:19.346Z,96389.47
2019-05-25T05:59:27.364Z,96399.60
2019-05-25T06:00:34.592Z,96396.84
2019-05-25T06:01:42.623Z,96401.94
2019-05-25T06:02:49.866Z,96400.83
2019-05-25T06:03:58.245Z,96398.41
2019-05-25T06:05:06.193Z,96404.97
2019-05-25T06:06:14.243Z,96406.48
2019-05-25T06:07:21.579Z,96407.84
2019-05-25T06:08:29.597Z,96401.84
2019-05-25T06:09:36.807Z,96406.27
2019-05-25T06:10:44.820Z,96406.47
2019-05-25T06:11:52.023Z,96411.41
2019-05-25T06:13:00.029Z,96407.38
2019-05-25T06:14:07.781Z,96402.17
2019-05-25T06:15:16.179Z,96401.41
2019-05-25T06:16:23.407Z,96400.15
2019-05-25T06:17:31.469Z,96405.40
2019-05-25T06:18:38.725Z,96408.55
2019-05-25T06:19:46.749Z,96403.71
2019-05-25T06:20:53.944Z,96403.42
2019-05-25T06:22:01.954Z,96400.83
2019-05-25T06:23:12.338Z,96404.94
2019-05-25T06:24:18.870Z,96398.11
2019-05-25T06:25:26.102Z,96398.31
2019-05-25T06:26:34.096Z,96399.62
2019-05-25T06:27:41.321Z,96402.29
2019-05-25T06:28:49.326Z,96406.27
2019-05-25T06:29:56.537Z,96403.17
2019-05-25T06:31:04.564Z,96401.91
2019-05-25T06:32:11.787Z,96405.05
2019-05-25T06:33:19.775Z,96406.72
2019-05-25T06:34:26.987Z,96408.41
2019-05-25T06:35:36.042Z,96405.01
2019-05-25T06:36:43.240Z,96404.56
2019-05-25T06:37:51.259Z,96404.94
2019-05-25T06:38:58.475Z,96407.56
2019-05-25T06:40:07.781Z,96404.16
2019-05-25T06:41:15.024Z,96405.85
2019-05-25T06:42:23.073Z,96411.43
2019-05-25T06:43:30.300Z,96409.82
2019-05-25T06:44:38.306Z,96410.83
2019-05-25T06:45:45.651Z,96408.25
2019-05-25T06:46:53.627Z,96414.80
2019-05-25T06:48:00.934Z,96411.87
2019-05-25T06:49:08.935Z,96410.61
2019-05-25T06:50:16.658Z,96414.05
2019-05-25T06:51:24.663Z,96410.30
2019-05-25T06:52:31.889Z,96408.69
2019-05-25T06:53:39.941Z,96412.31
2019-05-25T06:54:47.155Z,96412.32
2019-05-25T06:55:55.157Z,96411.19
2019-05-25T06:57:02.770Z,96415.16
2019-05-25T06:58:10.765Z,96412.87
2019-05-25T06:59:18.005Z,96418.63
2019-05-25T07:00:27.841Z,96418.69
2019-05-25T07:01:35.081Z,96413.29
2019-05-25T07:02:43.070Z,96414.94
2019-05-25T07:03:50.298Z,96421.52
2019-05-25T07:04:58.348Z,96416.45
2019-05-25T07:06:05.559Z,96416.45
2019-05-25T07:07:13.566Z,96413.52
2019-05-25T07:08:20.791Z,96412.23
2019-05-25T07:09:28.814Z,96420.13
2019-05-25T07:10:36.037Z,96426.67
2019-05-25T07:11:44.048Z,96424.41
2019-05-25T07:12:51.317Z,96427.20
2019-05-25T07:13:59.312Z,96425.55
2019-05-25T07:15:07.131Z,96426.88
2019-05-25T07:16:16.219Z,96426.58
2019-05-25T07:17:23.446Z,96430.34
2019-05-25T07:18:34.821Z,96431.67
2019-05-25T07:19:40.386Z,96429.07
2019-05-25T07:20:48.393Z,96431.53
2019-05-25T07:21:55.617Z,96429.58
2019-05-25T07:23:03.647Z,96428.41
2019-05-25T07:24:10.866Z,96435.97
2019-05-25T07:25:20.561Z,96434.01
2019-05-25T07:26:27.956Z,96435.53
2019-05-25T07:27:35.984Z,96437.31
2019-05-25T07:28:43.338Z,96436.67
2019-05-25T07:29:51.418Z,96437.02
2019-05-25T07:30:58.676Z,96442.77
2019-05-25T07:32:06.896Z,96433.73
2019-05-25T07:33:14.133Z,96437.84
2019-05-25T07:34:22.141Z,96438.02
2019-05-25T07:35:29.365Z,96432.45
2019-05-25T07:36:37.371Z,96430.29
2019-05-25T07:37:44.618Z,96432.59
2019-05-25T07:38:52.622Z,96429.98
2019-05-25T07:39:59.829Z,96435.73
2019-05-25T07:41:07.834Z,96431.28
2019-05-25T07:42:15.033Z,96436.22
2019-05-25T07:43:23.023Z,96431.47
2019-05-25T07:44:30.228Z,96428.19
2019-05-25T07:45:38.135Z,96429.48
2019-05-25T07:46:45.396Z,96430.63
2019-05-25T07:47:53.367Z,96422.44
2019-05-25T07:49:00.584Z,96427.85
2019-05-25T07:50:10.072Z,96424.24
2019-05-25T07:51:17.266Z,96427.83
2019-05-25T07:52:25.309Z,96428.00
2019-05-25T07:53:32.501Z,96428.03
2019-05-25T07:54:40.508Z,96432.63
2019-05-25T07:55:47.730Z,96432.11
2019-05-25T07:56:55.722Z,96430.64
2019-05-25T07:58:16.877Z,96431.79
2019-05-25T07:59:19.552Z,96433.77
2019-05-25T08:00:27.121Z,96435.24
2019-05-25T08:01:35.112Z,96434.26
2019-05-25T08:02:42.339Z,96439.64
2019-05-25T08:03:51.496Z,96439.32
2019-05-25T08:04:58.747Z,96438.50
2019-05-25T08:06:06.747Z,96436.86
2019-05-25T08:07:13.946Z,96439.95
2019-05-25T08:08:21.934Z,96439.45
2019-05-25T08:09:29.145Z,96443.07
2019-05-25T08:10:37.139Z,96439.30
2019-05-25T08:11:44.423Z,96442.88
2019-05-25T08:12:52.488Z,96445.34
2019-05-25T08:13:59.698Z,96447.31
2019-05-25T08:15:08.516Z,96446.81
2019-05-25T08:16:15.741Z,96446.98
2019-05-25T08:17:23.839Z,96449.12
2019-05-25T08:18:31.063Z,96448.63
2019-05-25T08:19:39.086Z,96451.09
2019-05-25T08:20:47.326Z,96450.76
2019-05-25T08:21:55.595Z,96451.58
2019-05-25T08:23:03.901Z,96450.76
2019-05-25T08:24:12.971Z,96454.54
2019-05-25T08:25:20.172Z,96454.86
2019-05-25T08:26:28.291Z,96453.36
2019-05-25T08:27:35.592Z,96451.05
2019-05-25T08:28:43.618Z,96445.30
2019-05-25T08:29:50.813Z,96443.50
2019-05-25T08:31:01.322Z,96448.75
2019-05-25T08:32:07.842Z,96448.59
2019-05-25T08:33:16.927Z,96445.47
2019-05-25T08:34:24.155Z,96449.91
2019-05-25T08:35:32.146Z,96450.72
2019-05-25T08:36:39.359Z,96442.84
2019-05-25T08:37:47.335Z,96450.06
2019-05-25T08:38:54.990Z,96461.08
2019-05-25T08:40:03.123Z,96450.06
2019-05-25T08:41:10.336Z,96449.89
2019-05-25T08:42:18.355Z,96451.02
2019-05-25T08:43:25.572Z,96453.48
2019-05-25T08:44:33.545Z,96455.48
2019-05-25T08:45:40.783Z,96457.94
2019-05-25T08:46:48.853Z,96458.59
2019-05-25T08:47:57.272Z,96453.98
2019-05-25T08:49:06.599Z,96458.42
2019-05-25T08:50:15.644Z,96451.86
2019-05-25T08:51:23.650Z,96448.73
2019-05-25T08:52:30.858Z,96451.69
2019-05-25T08:53:41.998Z,96449.38
2019-05-25T08:54:47.755Z,96448.20
2019-05-25T08:55:55.777Z,96448.03
2019-05-25T08:57:03.006Z,96451.64
2019-05-25T08:58:11.641Z,96448.35
2019-05-25T08:59:19.815Z,96453.58
2019-05-25T09:00:27.824Z,96453.41
2019-05-25T09:01:35.075Z,96455.87
2019-05-25T09:02:43.081Z,96451.26
2019-05-25T09:03:50.291Z,96457.01
2019-05-25T09:04:58.283Z,96457.83
2019-05-25T09:06:05.523Z,96458.16
2019-05-25T09:07:13.591Z,96457.33
2019-05-25T09:08:20.819Z,96463.41
2019-05-25T09:09:28.838Z,96464.73
2019-05-25T09:10:36.065Z,96462.59
2019-05-25T09:11:44.070Z,96457.83
2019-05-25T09:12:51.279Z,96459.47
2019-05-25T09:14:00.265Z,96460.29
2019-05-25T09:15:08.887Z,96464.06
2019-05-25T09:16:16.964Z,96461.23
2019-05-25T09:17:24.181Z,96457.95
2019-05-25T09:18:32.211Z,96463.53
2019-05-25T09:19:39.471Z,96457.11
2019-05-25T09:20:47.527Z,96460.72
2019-05-25T09:22:02.668Z,96459.03
2019-05-25T09:23:04.465Z,96462.16
2019-05-25T09:24:11.687Z,96461.64
2019-05-25T09:25:19.712Z,96464.55
2019-05-25T09:26:26.910Z,96460.44
2019-05-25T09:27:34.963Z,96463.87
2019-05-25T09:28:42.181Z,96460.91
2019-05-25T09:29:50.202Z,96464.22
2019-05-25T09:30:57.674Z,96462.53
2019-05-25T09:32:07.132Z,96462.36
2019-05-25T09:33:14.566Z,96463.83
2019-05-25T09:34:22.590Z,96463.34
2019-05-25T09:35:29.813Z,96459.54
2019-05-25T09:36:37.835Z,96457.55
2019-05-25T09:37:45.137Z,96459.48
2019-05-25T09:38:53.154Z,96460.29
2019-05-25T09:40:00.355Z,96454.69
2019-05-25T09:41:08.334Z,96458.09
2019-05-25T09:42:15.556Z,96452.80
2019-05-25T09:43:23.564Z,96457.05
2019-05-25T09:44:30.787Z,96460.12
2019-05-25T09:45:38.796Z,96462.09
2019-05-25T09:46:46.036Z,96455.83
2019-05-25T09:47:53.970Z,96456.97
2019-05-25T09:49:01.178Z,96452.84
2019-05-25T09:50:10.099Z,96453.67
2019-05-25T09:51:17.298Z,96453.49
2019-05-25T09:52:25.301Z,96454.96
2019-05-25T09:53:32.516Z,96456.89
2019-05-25T09:54:40.549Z,96453.59
2019-05-25T09:55:47.774Z,96453.23
2019-05-25T09:56:56.780Z,96451.40
2019-05-25T09:58:03.981Z,96456.47
2019-05-25T09:59:19.952Z,96448.03
2019-05-25T10:00:22.530Z,96444.38
2019-05-25T10:01:30.872Z,96442.50
2019-05-25T10:02:38.120Z,96447.39
2019-05-25T10:03:46.083Z,96448.47
2019-05-25T10:04:53.286Z,96443.80
2019-05-25T10:06:10.083Z,96449.98
2019-05-25T10:07:10.222Z,96447.13
2019-05-25T10:08:18.238Z,96452.98
2019-05-25T10:09:25.503Z,96442.21
2019-05-25T10:10:33.513Z,96444.10
2019-05-25T10:11:40.672Z,96449.83
2019-05-25T10:12:48.672Z,96446.44
2019-05-25T10:13:55.846Z,96444.91
2019-05-25T10:15:03.866Z,96446.47
2019-05-25T10:16:11.094Z,96440.83
2019-05-25T10:17:20.045Z,96446.06
2019-05-25T10:18:27.241Z,96441.53
2019-05-25T10:19:35.250Z,96440.16
2019-05-25T10:20:43.886Z,96439.30
2019-05-25T10:21:51.876Z,96443.72
2019-05-25T10:22:59.094Z,96445.14
2019-05-25T10:24:07.061Z,96443.14
2019-05-25T10:25:14.571Z,96444.59
2019-05-25T10:26:23.226Z,96440.13
2019-05-25T10:27:34.075Z,96443.09
2019-05-25T10:28:40.270Z,96446.55
2019-05-25T10:29:47.555Z,96438.95
2019-05-25T10:30:56.632Z,96444.55
2019-05-25T10:32:03.867Z,96443.55
2019-05-25T10:33:11.889Z,96439.27
2019-05-25T10:34:19.115Z,96441.91
2019-05-25T10:35:27.120Z,96435.98
2019-05-25T10:36:34.379Z,96431.71
2019-05-25T10:37:42.384Z,96437.67
2019-05-25T10:38:49.595Z,96440.50
2019-05-25T10:39:57.616Z,96440.86
2019-05-25T10:41:04.943Z,96433.52
2019-05-25T10:42:12.955Z,96437.70
2019-05-25T10:43:20.190Z,96434.61
2019-05-25T10:44:28.184Z,96432.73
2019-05-25T10:45:35.422Z,96433.77
2019-05-25T10:46:43.473Z,96436.48
2019-05-25T10:47:50.676Z,96438.48
2019-05-25T10:48:58.678Z,96437.03
2019-05-25T10:50:07.461Z,96429.61
2019-05-25T10:51:15.493Z,96425.47
2019-05-25T10:52:22.710Z,96428.75
2019-05-25T10:53:30.716Z,96431.20
2019-05-25T10:54:37.943Z,96428.07
2019-05-25T10:55:45.976Z,96432.34
2019-05-25T10:56:53.204Z,96429.31
2019-05-25T10:58:01.374Z,96427.81
2019-05-25T10:59:08.584Z,96430.09
2019-05-25T11:00:19.937Z,96426.59
2019-05-25T11:01:27.627Z,96430.79
2019-05-25T11:02:35.627Z,96424.14
2019-05-25T11:03:42.923Z,96420.95
2019-05-25T11:04:50.956Z,96421.52
2019-05-25T11:05:58.209Z,96434.59
2019-05-25T11:07:06.442Z,96428.07
2019-05-25T11:08:13.671Z,96429.29
2019-05-25T11:09:21.691Z,96421.77
2019-05-25T11:10:29.093Z,96425.59
2019-05-25T11:11:37.086Z,96433.19
2019-05-25T11:12:44.312Z,96428.48
2019-05-25T11:13:52.324Z,96423.05
2019-05-25T11:14:59.527Z,96423.94
2019-05-25T11:16:07.564Z,96430.58
2019-05-25T11:17:14.791Z,96422.62
2019-05-25T11:18:22.794Z,96420.20
2019-05-25T11:19:30.035Z,96420.83
2019-05-25T11:20:38.089Z,96417.69
2019-05-25T11:21:45.343Z,96421.46
2019-05-25T11:22:53.347Z,96419.64
2019-05-25T11:24:01.642Z,96415.67
2019-05-25T11:25:11.403Z,96410.19
2019-05-25T11:26:18.704Z,96407.48
2019-05-25T11:27:26.727Z,96421.74
2019-05-25T11:28:33.920Z,96418.15
2019-05-25T11:29:41.927Z,96420.82
2019-05-25T11:30:49.152Z,96412.41
2019-05-25T11:32:01.209Z,96413.27
2019-05-25T11:33:06.170Z,96411.27
2019-05-25T11:34:14.208Z,96410.84
2019-05-25T11:35:21.941Z,96407.40
2019-05-25T11:36:29.968Z,96405.30
2019-05-25T11:37:37.233Z,96405.00
2019-05-25T11:38:45.272Z,96401.58
2019-05-25T11:39:52.479Z,96399.25
2019-05-25T11:41:00.490Z,96402.56
2019-05-25T11:42:07.683Z,96406.65
2019-05-25T11:43:15.677Z,96405.52
2019-05-25T11:44:22.898Z,96389.89
2019-05-25T11:45:31.010Z,96392.45
2019-05-25T11:46:38.253Z,96389.80
2019-05-25T11:47:46.273Z,96394.31
2019-05-25T11:48:53.516Z,96391.77
2019-05-25T11:50:01.536Z,96398.69
2019-05-25T11:51:08.760Z,96392.28
2019-05-25T11:52:16.751Z,96394.11
2019-05-25T11:53:23.949Z,96393.81
2019-05-25T11:54:31.975Z,96393.63
2019-05-25T11:55:39.213Z,96391.30
2019-05-25T11:56:47.231Z,96391.28
2019-05-25T11:57:54.456Z,96387.63
2019-05-25T11:59:02.493Z,96381.27
2019-05-25T12:00:24.311Z,96386.86
2019-05-25T12:01:22.078Z,96374.72
2019-05-25T12:02:29.290Z,96382.14
2019-05-25T12:03:37.296Z,96378.56
2019-05-25T12:04:44.506Z,96381.05
2019-05-25T12:05:52.569Z,96379.89
2019-05-25T12:06:59.795Z,96379.59
2019-05-25T12:08:07.849Z,96383.05
2019-05-25T12:09:15.086Z,96381.55
2019-05-25T12:10:23.304Z,96385.12
2019-05-25T12:11:30.514Z,96384.17
2019-05-25T12:12:38.586Z,96382.13
2019-05-25T12:13:45.824Z,96383.45
2019-05-25T12:14:53.822Z,96379.61
2019-05-25T12:16:01.038Z,96374.41
2019-05-25T12:17:09.057Z,96373.46
2019-05-25T12:18:16.255Z,96375.61
2019-05-25T12:19:24.354Z,96373.25
2019-05-25T12:20:31.550Z,96371.93
2019-05-25T12:21:39.617Z,96371.55
2019-05-25T12:22:46.823Z,96375.13
2019-05-25T12:23:55.881Z,96369.58
2019-05-25T12:25:03.122Z,96372.23
2019-05-25T12:26:11.128Z,96378.49
2019-05-25T12:27:18.338Z,96371.55
2019-05-25T12:28:26.335Z,96368.59
2019-05-25T12:29:33.544Z,96371.05
2019-05-25T12:30:41.665Z,96373.19
2019-05-25T12:31:50.018Z,96375.02
2019-05-25T12:32:58.178Z,96369.98
2019-05-25T12:34:05.803Z,96373.56
2019-05-25T12:35:14.276Z,96374.52
2019-05-25T12:36:21.757Z,96376.86
2019-05-25T12:37:29.766Z,96373.39
2019-05-25T12:38:37.022Z,96372.87
2019-05-25T12:39:45.015Z,96368.39
2019-05-25T12:40:53.895Z,96375.40
2019-05-25T12:42:01.956Z,96374.28
2019-05-25T12:43:09.169Z,96372.87
2019-05-25T12:44:17.156Z,96374.38
2019-05-25T12:45:25.869Z,96372.94
2019-05-25T12:46:33.860Z,96376.61
2019-05-25T12:47:41.086Z,96370.05
2019-05-25T12:48:49.093Z,96373.10
2019-05-25T12:49:56.316Z,96371.16
2019-05-25T12:51:04.308Z,96368.36
2019-05-25T12:52:11.522Z,96366.31
2019-05-25T12:53:19.528Z,96374.69
2019-05-25T12:54:26.777Z,96371.00
2019-05-25T12:55:34.833Z,96369.38
2019-05-25T12:56:42.043Z,96373.98
2019-05-25T12:57:51.499Z,96372.48
2019-05-25T12:58:58.850Z,96372.59
2019-05-25T13:00:15.672Z,96372.19
2019-05-25T13:01:18.026Z,96380.36
2019-05-25T13:02:26.065Z,96371.72
2019-05-25T13:03:33.316Z,96372.44
2019-05-25T13:04:41.348Z,96371.82
2019-05-25T13:05:48.552Z,96370.49
2019-05-25T13:06:56.594Z,96369.88
2019-05-25T13:08:03.828Z,96375.19
2019-05-25T13:09:12.031Z,96373.05
2019-05-25T13:10:19.474Z,96372.33
2019-05-25T13:11:27.534Z,96379.38
2019-05-25T13:12:34.758Z,96378.14
2019-05-25T13:13:42.749Z,96375.05
2019-05-25T13:14:50.140Z,96375.97
2019-05-25T13:15:58.164Z,96374.22
2019-05-25T13:17:05.390Z,96373.81